createdAt,value
2023-09-13T00:02:17.490Z,3.03
2023-09-13T00:04:44.427Z,3.05
2023-09-13T00:07:12.221Z,3.70
2023-09-13T00:09:42.537Z,3.60
2023-09-13T00:12:09.766Z,4.00
2023-09-13T00:14:37.684Z,3.83
2023-09-13T00:17:04.424Z,3.65
2023-09-13T00:19:31.644Z,3.70
2023-09-13T00:21:58.713Z,3.83
2023-09-13T00:24:25.460Z,3.97
2023-09-13T00:26:51.959Z,3.60
2023-09-13T00:29:18.891Z,3.88
2023-09-13T00:31:45.724Z,3.88
2023-09-13T00:34:12.338Z,3.90
2023-09-13T00:36:38.846Z,4.10
2023-09-13T00:39:06.705Z,3.55
2023-09-13T00:41:33.492Z,3.70
2023-09-13T00:44:00.687Z,3.70
2023-09-13T00:46:29.239Z,3.85
2023-09-13T00:48:56.930Z,4.03
2023-09-13T00:51:23.688Z,3.83
2023-09-13T00:53:50.336Z,4.10
2023-09-13T00:56:17.957Z,3.90
2023-09-13T00:58:45.246Z,3.80
2023-09-13T01:01:13.827Z,4.40
2023-09-13T01:03:42.470Z,3.97
2023-09-13T01:06:10.692Z,3.95
2023-09-13T01:08:40.901Z,4.72
2023-09-13T01:11:08.139Z,4.18
2023-09-13T01:13:35.274Z,4.65
2023-09-13T01:16:15.714Z,3.92
2023-09-13T01:19:00.618Z,4.70
2023-09-13T01:21:53.771Z,4.30
2023-09-13T01:24:40.777Z,4.32
2023-09-13T01:27:16.314Z,3.80
2023-09-13T01:29:45.215Z,4.18
2023-09-13T01:32:11.955Z,4.15
2023-09-13T01:34:38.482Z,4.15
2023-09-13T01:37:06.062Z,3.90
2023-09-13T01:39:32.625Z,4.13
2023-09-13T01:42:09.010Z,4.25
2023-09-13T01:44:41.389Z,4.03
2023-09-13T01:47:09.247Z,4.13
2023-09-13T01:49:37.573Z,3.83
2023-09-13T01:52:05.864Z,4.60
2023-09-13T01:54:36.568Z,4.28
2023-09-13T01:57:03.927Z,4.47
2023-09-13T01:59:33.861Z,4.18
2023-09-13T02:02:00.619Z,4.22
2023-09-13T02:04:32.949Z,4.30
2023-09-13T02:07:00.818Z,4.60
2023-09-13T02:09:27.555Z,4.03
2023-09-13T02:11:54.055Z,4.32
2023-09-13T02:14:20.683Z,4.13
2023-09-13T02:16:47.528Z,4.70
2023-09-13T02:19:14.263Z,4.32
2023-09-13T02:21:42.212Z,4.30
2023-09-13T02:24:08.933Z,4.40
2023-09-13T02:26:36.368Z,5.00
2023-09-13T02:29:14.082Z,4.78
2023-09-13T02:31:40.759Z,5.80
2023-09-13T02:34:07.361Z,5.50
2023-09-13T02:36:33.879Z,6.18
2023-09-13T02:39:00.870Z,6.15
2023-09-13T02:41:27.402Z,7.00
2023-09-13T02:43:54.020Z,6.95
2023-09-13T02:46:20.628Z,7.10
2023-09-13T02:48:47.333Z,7.35
2023-09-13T02:51:15.690Z,7.05
2023-09-13T02:53:43.333Z,7.88
2023-09-13T02:56:10.479Z,7.22
2023-09-13T02:58:38.525Z,7.90
2023-09-13T03:01:11.597Z,7.38
2023-09-13T03:03:41.088Z,7.90
2023-09-13T03:06:14.823Z,7.80
2023-09-13T03:08:43.018Z,8.13
2023-09-13T03:11:18.052Z,8.63
2023-09-13T03:13:45.660Z,8.10
2023-09-13T03:16:21.017Z,8.80
2023-09-13T03:18:50.335Z,7.75
2023-09-13T03:21:21.260Z,8.15
2023-09-13T03:23:52.526Z,7.75
2023-09-13T03:26:23.706Z,8.18
2023-09-13T03:28:54.044Z,7.50
2023-09-13T03:31:22.766Z,8.05
2023-09-13T03:33:51.045Z,8.05
2023-09-13T03:36:18.331Z,7.80
2023-09-13T03:38:49.166Z,8.10
2023-09-13T03:41:21.486Z,7.80
2023-09-13T03:43:48.793Z,7.90
2023-09-13T03:46:15.413Z,7.72
2023-09-13T03:48:42.616Z,7.75
2023-09-13T03:51:10.353Z,7.68
2023-09-13T03:53:37.634Z,7.38
2023-09-13T03:56:05.551Z,7.63
2023-09-13T03:58:35.263Z,8.13
2023-09-13T04:01:03.957Z,8.07
2023-09-13T04:03:30.868Z,6.70
2023-09-13T04:05:57.768Z,7.07
2023-09-13T04:08:24.519Z,7.45
2023-09-13T04:10:51.782Z,7.50
2023-09-13T04:13:19.513Z,7.03
2023-09-13T04:15:46.775Z,7.25
2023-09-13T04:18:14.301Z,7.75
2023-09-13T04:20:44.577Z,7.20
2023-09-13T04:23:11.130Z,7.15
2023-09-13T04:25:39.182Z,7.25
2023-09-13T04:28:08.144Z,7.45
2023-09-13T04:30:35.240Z,7.60
2023-09-13T04:33:03.201Z,6.82
2023-09-13T04:35:31.059Z,6.50
2023-09-13T04:37:58.472Z,7.47
2023-09-13T04:40:25.384Z,7.60
2023-09-13T04:43:16.349Z,6.85
2023-09-13T04:45:44.177Z,6.63
2023-09-13T04:48:11.781Z,5.90
2023-09-13T04:50:38.291Z,5.55
2023-09-13T04:53:04.989Z,6.53
2023-09-13T04:55:31.801Z,6.30
2023-09-13T04:57:58.631Z,6.50
2023-09-13T05:00:27.993Z,6.35
2023-09-13T05:02:54.833Z,6.22
2023-09-13T05:05:21.509Z,6.00
2023-09-13T05:07:47.992Z,6.30
2023-09-13T05:10:14.721Z,5.85
2023-09-13T05:12:41.433Z,6.10
2023-09-13T05:15:08.413Z,6.03
2023-09-13T05:17:34.981Z,6.22
2023-09-13T05:20:01.670Z,6.05
2023-09-13T05:22:28.264Z,6.40
2023-09-13T05:24:54.959Z,6.30
2023-09-13T05:27:21.478Z,6.68
2023-09-13T05:29:49.441Z,6.32
2023-09-13T05:32:16.071Z,7.03
2023-09-13T05:34:42.699Z,6.45
2023-09-13T05:37:09.252Z,6.18
2023-09-13T05:39:35.782Z,6.50
2023-09-13T05:42:03.597Z,6.25
2023-09-13T05:44:30.098Z,6.38
2023-09-13T05:46:56.815Z,5.57
2023-09-13T05:49:23.829Z,5.68
2023-09-13T05:51:51.076Z,5.40
2023-09-13T05:54:17.663Z,6.15
2023-09-13T05:56:44.923Z,5.68
2023-09-13T05:59:13.475Z,5.95
2023-09-13T06:01:40.430Z,5.75
2023-09-13T06:04:08.580Z,5.40
2023-09-13T06:06:36.161Z,5.80
2023-09-13T06:09:04.803Z,6.22
2023-09-13T06:11:32.719Z,6.10
2023-09-13T06:13:59.396Z,6.20
2023-09-13T06:16:26.238Z,5.97
2023-09-13T06:18:53.234Z,6.05
2023-09-13T06:21:19.784Z,6.07
2023-09-13T06:23:46.547Z,5.95
2023-09-13T06:26:13.887Z,5.90
2023-09-13T06:28:40.954Z,6.43
2023-09-13T06:31:08.355Z,6.55
2023-09-13T06:36:06.388Z,6.18
2023-09-13T06:38:34.604Z,6.57
2023-09-13T06:41:02.234Z,6.00
2023-09-13T06:46:05.166Z,6.00
2023-09-13T06:48:34.888Z,5.57
2023-09-13T06:51:44.160Z,5.78
2023-09-13T06:53:51.410Z,5.25
2023-09-13T06:56:20.440Z,5.22
2023-09-13T06:58:51.718Z,5.50
2023-09-13T07:03:54.605Z,4.68
2023-09-13T07:06:22.873Z,5.28
2023-09-13T07:08:49.530Z,4.75
2023-09-13T07:11:19.152Z,4.45
2023-09-13T07:13:45.804Z,4.20
2023-09-13T07:16:12.438Z,4.70
2023-09-13T07:18:39.013Z,4.72
2023-09-13T07:21:05.516Z,4.57
2023-09-13T07:23:32.087Z,4.28
2023-09-13T07:25:58.749Z,4.25
2023-09-13T07:28:25.614Z,4.15
2023-09-13T07:30:52.382Z,4.05
2023-09-13T07:33:18.975Z,4.28
2023-09-13T07:35:45.491Z,4.20
2023-09-13T07:38:12.208Z,4.15
2023-09-13T07:40:40.042Z,4.45
2023-09-13T07:43:09.925Z,4.28
2023-09-13T07:45:36.616Z,4.60
2023-09-13T07:48:04.216Z,4.50
2023-09-13T07:50:41.576Z,4.40
2023-09-13T07:53:12.192Z,4.05
2023-09-13T07:55:39.767Z,3.80
2023-09-13T07:58:08.036Z,4.05
2023-09-13T08:00:34.849Z,4.00
2023-09-13T08:03:02.529Z,4.25
2023-09-13T08:05:29.184Z,4.40
2023-09-13T08:07:56.129Z,3.88
2023-09-13T08:10:25.793Z,3.92
2023-09-13T08:12:53.346Z,4.30
2023-09-13T08:15:23.003Z,4.65
2023-09-13T08:17:57.436Z,4.40
2023-09-13T08:20:24.127Z,4.43
2023-09-13T08:22:50.768Z,4.18
2023-09-13T08:25:17.550Z,3.85
2023-09-13T08:27:44.747Z,4.20
2023-09-13T08:30:11.485Z,3.95
2023-09-13T08:32:38.522Z,4.00
2023-09-13T08:35:05.841Z,3.83
2023-09-13T08:37:32.626Z,4.22
2023-09-13T08:39:59.264Z,3.97
2023-09-13T08:42:29.438Z,4.20
2023-09-13T08:44:58.219Z,3.88
2023-09-13T08:47:31.527Z,3.97
2023-09-13T08:50:09.041Z,3.67
2023-09-13T08:52:38.808Z,4.10
2023-09-13T08:55:07.951Z,3.30
2023-09-13T08:57:36.425Z,4.15
2023-09-13T09:00:03.320Z,4.10
2023-09-13T09:02:33.110Z,3.30
2023-09-13T09:05:01.209Z,3.55
2023-09-13T09:07:28.944Z,3.75
2023-09-13T09:09:56.749Z,3.50
2023-09-13T09:12:25.463Z,3.60
2023-09-13T09:14:54.891Z,3.67
2023-09-13T09:17:23.827Z,3.55
2023-09-13T09:19:50.942Z,3.75
2023-09-13T09:22:19.172Z,3.67
2023-09-13T09:24:47.132Z,3.60
2023-09-13T09:27:14.181Z,3.53
2023-09-13T09:29:41.180Z,3.40
2023-09-13T09:32:09.875Z,3.70
2023-09-13T09:34:42.570Z,3.53
2023-09-13T09:37:10.157Z,3.38
2023-09-13T09:39:43.114Z,3.90
2023-09-13T09:42:17.004Z,3.47
2023-09-13T09:44:43.907Z,3.55
2023-09-13T09:47:14.322Z,3.42
2023-09-13T09:49:42.430Z,3.60
2023-09-13T09:52:09.104Z,3.30
2023-09-13T09:54:40.447Z,4.13
2023-09-13T09:57:07.507Z,3.83
2023-09-13T09:59:37.853Z,3.45
2023-09-13T10:02:04.992Z,2.78
2023-09-13T10:04:45.729Z,3.90
2023-09-13T10:07:12.501Z,2.90
2023-09-13T10:09:46.375Z,3.42
2023-09-13T10:12:14.465Z,3.55
2023-09-13T10:14:42.975Z,3.10
2023-09-13T10:17:12.992Z,3.58
2023-09-13T10:19:43.025Z,3.70
2023-09-13T10:22:13.813Z,3.30
2023-09-13T10:24:49.202Z,3.47
2023-09-13T10:27:18.560Z,3.28
2023-09-13T10:29:58.863Z,3.47
2023-09-13T10:32:47.212Z,3.70
2023-09-13T10:35:15.095Z,3.55
2023-09-13T10:37:56.590Z,4.82
2023-09-13T10:40:29.060Z,4.35
2023-09-13T10:42:55.735Z,3.95
2023-09-13T10:45:23.667Z,3.40
2023-09-13T10:47:51.904Z,3.72
2023-09-13T10:50:20.668Z,3.90
2023-09-13T10:52:49.613Z,3.53
2023-09-13T10:55:17.012Z,3.40
2023-09-13T10:57:44.517Z,3.17
2023-09-13T11:00:12.708Z,3.33
2023-09-13T11:02:41.582Z,2.92
2023-09-13T11:05:12.798Z,3.20
2023-09-13T11:07:47.579Z,3.47
2023-09-13T11:10:15.799Z,3.22
2023-09-13T11:12:50.113Z,3.08
2023-09-13T11:15:24.302Z,3.22
2023-09-13T11:17:55.528Z,3.00
2023-09-13T11:20:30.704Z,3.28
2023-09-13T11:26:04.068Z,3.25
2023-09-13T11:28:44.528Z,2.80
2023-09-13T11:31:14.985Z,2.63
2023-09-13T11:33:52.448Z,3.10
2023-09-13T11:36:19.600Z,2.63
2023-09-13T11:38:54.432Z,2.88
2023-09-13T11:41:21.394Z,2.67
2023-09-13T11:44:03.068Z,2.78
2023-09-13T11:46:34.093Z,2.97
2023-09-13T11:49:03.561Z,2.90
2023-09-13T11:54:18.954Z,2.55
2023-09-13T11:56:48.596Z,3.10
2023-09-13T11:59:18.769Z,3.10
2023-09-13T12:01:48.593Z,2.90
2023-09-13T12:06:50.085Z,2.80
2023-09-13T12:09:23.693Z,3.20
2023-09-13T12:11:57.425Z,2.72
2023-09-13T12:14:40.762Z,2.70
2023-09-13T12:17:14.953Z,2.60
2023-09-13T12:19:41.666Z,2.55
2023-09-13T12:22:13.303Z,2.53
2023-09-13T12:24:50.779Z,2.67
2023-09-13T12:27:17.436Z,2.78
2023-09-13T12:29:48.141Z,2.80
2023-09-13T12:32:16.202Z,2.72
2023-09-13T12:34:43.344Z,2.85
2023-09-13T12:37:10.035Z,2.88
2023-09-13T12:39:36.578Z,2.60
2023-09-13T12:42:09.386Z,3.08
2023-09-13T12:44:38.202Z,3.00
2023-09-13T12:47:05.701Z,2.97
2023-09-13T12:49:32.328Z,2.38
2023-09-13T12:51:59.035Z,2.13
2023-09-13T12:54:25.699Z,2.15
2023-09-13T12:56:52.308Z,2.55
2023-09-13T12:59:22.709Z,2.60
2023-09-13T13:01:55.412Z,2.35
2023-09-13T13:04:24.508Z,2.35
2023-09-13T13:07:00.894Z,2.30
2023-09-13T13:09:27.816Z,2.20
2023-09-13T13:11:54.859Z,2.03
2023-09-13T13:14:24.569Z,2.03
2023-09-13T13:16:59.935Z,2.30
2023-09-13T13:19:55.162Z,2.05
2023-09-13T13:22:25.042Z,2.00
2023-09-13T13:24:53.412Z,1.95
2023-09-13T13:27:20.501Z,1.88
2023-09-13T13:29:47.148Z,1.85
2023-09-13T13:32:13.657Z,1.75
2023-09-13T13:34:40.269Z,2.10
2023-09-13T13:37:06.775Z,1.58
2023-09-13T13:39:33.359Z,1.52
2023-09-13T13:41:59.986Z,2.03
2023-09-13T13:44:26.700Z,1.90
2023-09-13T13:46:53.256Z,1.98
2023-09-13T13:49:20.148Z,2.22
2023-09-13T13:51:50.655Z,2.05
2023-09-13T13:54:19.029Z,1.90
2023-09-13T13:56:46.043Z,1.80
2023-09-13T13:59:13.559Z,1.83
2023-09-13T14:01:40.573Z,2.03
2023-09-13T14:04:08.586Z,1.88
2023-09-13T14:06:35.327Z,2.00
2023-09-13T14:09:05.130Z,1.92
2023-09-13T14:11:32.010Z,2.00
2023-09-13T14:13:58.522Z,2.00
2023-09-13T14:16:25.046Z,2.22
2023-09-13T14:18:51.644Z,2.30
2023-09-13T14:21:18.219Z,1.92
2023-09-13T14:23:46.016Z,2.00
2023-09-13T14:26:12.904Z,2.20
2023-09-13T14:28:39.473Z,1.90
2023-09-13T14:31:13.027Z,1.95
2023-09-13T14:33:43.422Z,2.30
2023-09-13T14:36:10.992Z,1.92
2023-09-13T14:38:37.752Z,2.13
2023-09-13T14:41:04.272Z,2.00
2023-09-13T14:43:30.776Z,2.00
2023-09-13T14:45:57.439Z,2.10
2023-09-13T14:48:24.164Z,2.00
2023-09-13T14:50:50.652Z,2.08
2023-09-13T14:53:17.160Z,2.00
2023-09-13T14:55:43.706Z,2.00
2023-09-13T14:58:10.355Z,1.80
2023-09-13T15:00:36.937Z,1.77
2023-09-13T15:03:04.673Z,1.98
2023-09-13T15:05:31.334Z,1.80
2023-09-13T15:07:57.801Z,2.22
2023-09-13T15:10:24.684Z,1.70
2023-09-13T15:12:51.288Z,2.03
2023-09-13T15:15:18.132Z,1.92
2023-09-13T15:17:44.991Z,2.20
2023-09-13T15:20:11.749Z,1.92
2023-09-13T15:22:38.336Z,1.85
2023-09-13T15:25:05.219Z,2.00
2023-09-13T15:27:31.833Z,1.80
2023-09-13T15:29:58.653Z,1.67
2023-09-13T15:32:25.361Z,1.98
2023-09-13T15:34:52.067Z,1.90
2023-09-13T15:37:18.576Z,1.88
2023-09-13T15:39:45.698Z,1.80
2023-09-13T15:42:12.423Z,1.80
2023-09-13T15:44:38.993Z,2.10
2023-09-13T15:47:05.614Z,1.88
2023-09-13T15:49:32.402Z,1.70
2023-09-13T15:51:59.000Z,1.75
2023-09-13T15:54:26.421Z,1.75
2023-09-13T15:56:53.375Z,1.90
2023-09-13T15:59:19.882Z,1.90
2023-09-13T16:01:46.449Z,1.67
2023-09-13T16:04:13.046Z,1.80
2023-09-13T16:06:40.005Z,1.90
2023-09-13T16:09:07.201Z,1.45
2023-09-13T16:11:35.441Z,1.90
2023-09-13T16:14:02.543Z,1.80
2023-09-13T16:16:32.177Z,1.67
2023-09-13T16:18:58.890Z,1.83
2023-09-13T16:21:26.954Z,1.70
2023-09-13T16:23:53.865Z,1.73
2023-09-13T16:26:21.517Z,1.60
2023-09-13T16:28:48.238Z,1.90
2023-09-13T16:31:14.924Z,2.00
2023-09-13T16:33:41.549Z,2.00
2023-09-13T16:36:08.078Z,1.92
2023-09-13T16:38:34.762Z,2.10
2023-09-13T16:41:01.372Z,2.08
2023-09-13T16:43:27.807Z,2.00
2023-09-13T16:45:54.427Z,1.70
2023-09-13T16:48:33.675Z,1.70
2023-09-13T16:51:01.681Z,1.65
2023-09-13T16:53:28.167Z,1.98
2023-09-13T16:55:55.002Z,1.92
2023-09-13T16:58:21.652Z,2.08
2023-09-13T17:00:49.826Z,2.00
2023-09-13T17:03:16.924Z,1.90
2023-09-13T17:05:43.828Z,2.08
2023-09-13T17:08:10.325Z,2.10
2023-09-13T17:10:36.971Z,1.88
2023-09-13T17:13:03.964Z,2.00
2023-09-13T17:15:30.626Z,1.80
2023-09-13T17:17:57.196Z,1.95
2023-09-13T17:20:23.979Z,1.73
2023-09-13T17:22:50.526Z,2.00
2023-09-13T17:25:17.134Z,1.85
2023-09-13T17:27:43.890Z,1.95
2023-09-13T17:30:10.748Z,1.80
2023-09-13T17:32:37.277Z,2.17
2023-09-13T17:35:04.038Z,1.88
2023-09-13T17:37:30.577Z,1.83
2023-09-13T17:39:57.582Z,2.22
2023-09-13T17:42:24.666Z,1.77
2023-09-13T17:44:52.176Z,1.88
2023-09-13T17:47:22.291Z,1.90
2023-09-13T17:49:49.902Z,2.17
2023-09-13T17:52:18.074Z,2.13
2023-09-13T17:54:44.728Z,2.20
2023-09-13T17:57:11.309Z,2.35
2023-09-13T17:59:38.803Z,1.92
2023-09-13T18:02:06.072Z,2.17
2023-09-13T18:04:32.898Z,1.70
2023-09-13T18:06:59.618Z,2.10
2023-09-13T18:09:26.305Z,2.10
2023-09-13T18:11:54.753Z,2.10
2023-09-13T18:14:21.871Z,2.00
2023-09-13T18:16:48.695Z,2.42
2023-09-13T18:19:17.235Z,2.30
2023-09-13T18:21:43.873Z,2.22
2023-09-13T18:24:10.379Z,2.38
2023-09-13T18:26:36.992Z,1.98
2023-09-13T18:29:03.909Z,2.15
2023-09-13T18:31:30.547Z,2.55
2023-09-13T18:33:57.329Z,2.33
2023-09-13T18:36:23.964Z,2.70
2023-09-13T18:38:51.391Z,2.50
2023-09-13T18:41:18.161Z,2.47
2023-09-13T18:43:44.788Z,3.92
2023-09-13T18:46:13.149Z,4.13
2023-09-13T18:48:39.980Z,3.47
2023-09-13T18:51:06.855Z,3.60
2023-09-13T18:53:34.487Z,3.53
2023-09-13T18:56:01.234Z,3.60
2023-09-13T18:58:28.989Z,2.83
2023-09-13T19:01:00.366Z,2.60
2023-09-13T19:03:28.448Z,2.70
2023-09-13T19:05:59.559Z,2.70
2023-09-13T19:08:28.764Z,2.88
2023-09-13T19:10:56.194Z,2.33
2023-09-13T19:13:23.051Z,2.90
2023-09-13T19:16:05.119Z,3.50
2023-09-13T19:18:33.802Z,3.25
2023-09-13T19:21:01.152Z,4.00
2023-09-13T19:23:30.953Z,3.85
2023-09-13T19:26:00.214Z,3.67
2023-09-13T19:28:29.434Z,3.85
2023-09-13T19:30:59.527Z,4.20
2023-09-13T19:33:27.906Z,4.07
2023-09-13T19:35:59.543Z,3.65
2023-09-13T19:38:30.389Z,3.88
2023-09-13T19:40:58.196Z,4.30
2023-09-13T19:43:26.358Z,4.50
2023-09-13T19:46:00.245Z,3.75
2023-09-13T19:48:27.920Z,4.18
2023-09-13T19:50:58.053Z,4.10
2023-09-13T19:53:26.056Z,4.13
2023-09-13T19:55:52.824Z,4.75
2023-09-13T19:58:19.717Z,4.60
2023-09-13T20:00:48.441Z,6.43
2023-09-13T20:03:15.630Z,7.55
2023-09-13T20:05:42.575Z,8.15
2023-09-13T20:08:09.947Z,8.70
2023-09-13T20:10:36.549Z,8.98
2023-09-13T20:13:04.536Z,9.07
2023-09-13T20:15:31.386Z,9.00
2023-09-13T20:17:59.497Z,9.93
2023-09-13T20:20:27.754Z,9.57
2023-09-13T20:22:54.929Z,9.48
2023-09-13T20:25:21.879Z,10.10
2023-09-13T20:27:48.718Z,10.05
2023-09-13T20:30:15.432Z,9.25
2023-09-13T20:32:42.831Z,9.68
2023-09-13T20:35:09.678Z,9.88
2023-09-13T20:37:36.276Z,9.48
2023-09-13T20:40:05.229Z,8.93
2023-09-13T20:42:31.948Z,9.52
2023-09-13T20:44:58.636Z,9.70
2023-09-13T20:47:25.132Z,9.50
2023-09-13T20:49:51.614Z,9.70
2023-09-13T20:52:21.520Z,9.02
2023-09-13T20:54:48.431Z,9.18
2023-09-13T20:57:14.945Z,8.55
2023-09-13T20:59:42.236Z,7.93
2023-09-13T21:02:08.792Z,8.07
2023-09-13T21:04:35.894Z,8.05
2023-09-13T21:07:05.054Z,8.07
2023-09-13T21:09:31.808Z,8.10
2023-09-13T21:11:58.416Z,7.95
2023-09-13T21:14:24.914Z,7.88
2023-09-13T21:16:51.473Z,8.25
2023-09-13T21:19:19.281Z,7.95
2023-09-13T21:21:46.106Z,8.25
2023-09-13T21:24:13.036Z,8.48
2023-09-13T21:26:42.265Z,8.30
2023-09-13T21:29:09.080Z,7.88
2023-09-13T21:31:36.754Z,7.85
2023-09-13T21:34:03.698Z,7.90
2023-09-13T21:36:30.306Z,7.30
2023-09-13T21:38:56.897Z,7.50
2023-09-13T21:41:24.201Z,7.18
2023-09-13T21:43:50.764Z,7.97
2023-09-13T21:46:17.315Z,8.05
2023-09-13T21:48:44.963Z,8.25
2023-09-13T21:51:12.647Z,8.43
2023-09-13T21:53:39.973Z,8.40
2023-09-13T21:56:08.716Z,8.18
2023-09-13T21:58:35.664Z,7.63
2023-09-13T22:01:02.700Z,8.15
2023-09-13T22:03:30.639Z,7.95
2023-09-13T22:05:57.429Z,8.18
2023-09-13T22:08:23.973Z,8.00
2023-09-13T22:11:01.571Z,8.70
2023-09-13T22:13:28.747Z,8.07
2023-09-13T22:15:55.578Z,8.65
2023-09-13T22:18:22.139Z,8.80
2023-09-13T22:20:50.072Z,8.23
2023-09-13T22:23:18.651Z,8.52
2023-09-13T22:25:45.786Z,8.35
2023-09-13T22:28:12.310Z,8.50
2023-09-13T22:30:41.967Z,7.72
2023-09-13T22:33:08.718Z,7.78
2023-09-13T22:35:35.426Z,7.53
2023-09-13T22:38:02.452Z,7.88
2023-09-13T22:40:29.288Z,6.90
2023-09-13T22:42:55.850Z,6.07
2023-09-13T22:45:22.603Z,5.72
2023-09-13T22:47:49.277Z,5.50
2023-09-13T22:50:15.878Z,5.50
2023-09-13T22:52:42.765Z,5.65
2023-09-13T22:55:09.429Z,5.03
2023-09-13T22:57:36.147Z,5.20
2023-09-13T23:00:04.539Z,4.95
2023-09-13T23:02:32.248Z,4.95
2023-09-13T23:04:58.849Z,4.80
2023-09-13T23:07:25.876Z,4.78
2023-09-13T23:09:52.346Z,4.80
2023-09-13T23:12:19.026Z,4.53
2023-09-13T23:14:45.522Z,4.18
2023-09-13T23:17:12.740Z,4.53
2023-09-13T23:19:39.317Z,4.50
2023-09-13T23:22:06.078Z,4.30
2023-09-13T23:24:35.945Z,3.90
2023-09-13T23:27:03.729Z,4.70
2023-09-13T23:29:30.730Z,4.30
2023-09-13T23:31:58.992Z,5.10
2023-09-13T23:34:25.687Z,4.10
2023-09-13T23:36:52.988Z,4.55
2023-09-13T23:39:19.565Z,4.30
2023-09-13T23:41:46.513Z,4.22
2023-09-13T23:44:14.788Z,4.05
2023-09-13T23:46:41.423Z,4.13
2023-09-13T23:49:09.126Z,4.50
2023-09-13T23:51:36.054Z,3.97
2023-09-13T23:54:02.543Z,4.28
2023-09-13T23:56:29.036Z,4.38
2023-09-13T23:58:57.387Z,3.80
